Time;durP1;ratioP1;P1;durP2;ratioP2;P2;SDS_P1;SDS_P2;PMS_P1;PMS_P2;Temp;Humidity;BMP_temperature;BMP_pressure;BME280_temperature;BME280_humidity;BME280_pressure;Samples;Min_cycle;Max_cycle;Signal;HPM_P1;HPM_P2
2022/04/24 00:00:38;;;;;;;12.05;5.90;;;;;;;13.82;49.48;99849.81;5068178;28;20072;-72
2022/04/24 00:03:05;;;;;;;10.93;5.97;;;;;;;13.84;50.04;99863.28;5065340;28;20036;-73
2022/04/24 00:05:32;;;;;;;11.70;5.93;;;;;;;13.79;49.99;99847.13;5068783;28;20402;-73
2022/04/24 00:07:58;;;;;;;11.82;5.88;;;;;;;13.75;50.26;99852.00;5064391;28;20850;-73
2022/04/24 00:10:25;;;;;;;13.25;6.05;;;;;;;13.66;50.38;99844.28;5065092;28;20122;-72
2022/04/24 00:12:51;;;;;;;11.90;5.88;;;;;;;13.59;50.67;99840.91;5063850;28;20467;-73
2022/04/24 00:15:18;;;;;;;13.40;6.90;;;;;;;13.57;50.88;99840.59;5061578;28;20080;-71
2022/04/24 00:17:44;;;;;;;11.30;5.50;;;;;;;13.55;51.42;99846.59;5069181;28;20155;-73
2022/04/24 00:20:11;;;;;;;12.50;6.53;;;;;;;13.52;51.01;99847.47;5061402;28;20036;-73
2022/04/24 00:22:37;;;;;;;15.45;6.95;;;;;;;13.46;50.76;99848.44;5077768;28;20043;-72
2022/04/24 00:25:04;;;;;;;15.50;6.45;;;;;;;13.43;51.23;99844.50;5068175;28;20044;-72
2022/04/24 00:27:32;;;;;;;13.07;6.72;;;;;;;13.41;51.54;99846.16;5068247;28;20505;-72
2022/04/24 00:29:59;;;;;;;13.15;5.95;;;;;;;13.35;51.56;99840.38;5056084;28;20068;-73
2022/04/24 00:32:25;;;;;;;13.73;6.10;;;;;;;13.33;51.82;99834.47;5057773;28;20060;-73
2022/04/24 00:34:52;;;;;;;13.82;6.85;;;;;;;13.31;51.59;99836.13;5068755;28;20050;-71
2022/04/24 00:37:18;;;;;;;15.05;6.55;;;;;;;13.27;51.53;99830.66;5065095;28;20416;-74
2022/04/24 00:39:45;;;;;;;11.57;5.85;;;;;;;13.22;52.53;99824.88;5062586;28;20044;-74
2022/04/24 00:42:11;;;;;;;14.48;6.95;;;;;;;13.19;52.31;99826.50;5064817;28;20048;-73
2022/04/24 00:44:38;;;;;;;14.27;6.97;;;;;;;13.20;52.55;99830.06;5067932;28;20056;-72
2022/04/24 00:47:10;;;;;;;15.05;6.55;;;;;;;13.16;52.27;99824.59;5060468;28;20052;-73
2022/04/24 00:49:36;;;;;;;13.95;6.78;;;;;;;13.12;52.75;99826.69;5061865;28;20401;-72
2022/04/24 00:52:03;;;;;;;12.35;6.75;;;;;;;13.07;52.82;99824.44;5062589;28;20068;-73
2022/04/24 00:54:30;;;;;;;12.52;6.20;;;;;;;13.07;53.01;99824.44;5070012;28;20124;-73
2022/04/24 00:56:56;;;;;;;12.23;6.60;;;;;;;12.98;53.20;99821.47;5068867;28;20123;-72
2022/04/24 00:59:23;;;;;;;13.02;6.65;;;;;;;12.98;53.23;99825.06;5071448;28;20048;-73
2022/04/24 01:01:49;;;;;;;12.52;5.95;;;;;;;12.96;53.44;99823.88;5072901;28;20052;-71
2022/04/24 01:04:18;;;;;;;13.65;7.40;;;;;;;12.90;53.57;99833.97;5058186;28;20355;-72
2022/04/24 01:06:44;;;;;;;14.93;7.32;;;;;;;12.86;53.70;99831.25;5074482;28;20048;-72
2022/04/24 01:09:20;;;;;;;14.90;6.75;;;;;;;12.87;53.93;99835.59;5074108;28;20170;-72
2022/04/24 01:11:52;;;;;;;13.07;7.13;;;;;;;12.83;54.67;99837.69;5065164;28;20132;-72
2022/04/24 01:14:20;;;;;;;14.73;7.60;;;;;;;12.78;54.06;99834.63;5072040;28;20713;-72
2022/04/24 01:16:48;;;;;;;11.32;5.65;;;;;;;12.76;54.83;99837.84;5064545;28;20127;-72
2022/04/24 01:19:16;;;;;;;13.25;6.57;;;;;;;12.73;54.31;99835.16;5064178;28;20135;-72
2022/04/24 01:21:45;;;;;;;15.10;7.10;;;;;;;12.68;55.07;99830.13;5064230;28;20048;-71
2022/04/24 01:24:14;;;;;;;14.85;6.85;;;;;;;12.66;55.08;99832.56;5070885;28;20138;-72
2022/04/24 01:26:40;;;;;;;14.95;7.55;;;;;;;12.65;55.16;99833.75;5065594;28;20052;-74
2022/04/24 01:29:07;;;;;;;11.80;5.70;;;;;;;12.53;55.64;99821.34;5067799;28;20180;-73
2022/04/24 01:31:33;;;;;;;14.35;6.97;;;;;;;12.55;55.26;99827.25;5059307;28;20531;-72
2022/04/24 01:34:00;;;;;;;14.60;6.40;;;;;;;12.51;55.91;99818.22;5063209;28;20767;-71
2022/04/24 01:36:27;;;;;;;14.18;6.95;;;;;;;12.53;55.49;99832.44;5071517;28;20052;-73
2022/04/24 01:38:54;;;;;;;13.93;7.00;;;;;;;12.50;55.73;99830.56;5069674;28;20090;-71
2022/04/24 01:41:20;;;;;;;13.25;7.15;;;;;;;12.42;56.31;99823.59;5066313;28;20101;-73
2022/04/24 01:43:48;;;;;;;14.32;7.55;;;;;;;12.47;56.00;99833.41;5073293;28;20049;-71
2022/04/24 01:46:14;;;;;;;14.52;7.30;;;;;;;12.43;55.99;99829.94;5060982;28;20043;-71
2022/04/24 01:48:42;;;;;;;16.75;7.82;;;;;;;12.37;57.02;99826.09;5066379;28;20052;-73
2022/04/24 01:51:09;;;;;;;14.10;7.13;;;;;;;12.33;57.14;99825.41;5065410;28;20147;-72
2022/04/24 01:53:36;;;;;;;14.52;7.03;;;;;;;12.33;57.31;99828.16;5064430;28;20445;-72
2022/04/24 01:56:06;;;;;;;14.32;7.20;;;;;;;12.29;58.22;99827.47;5060793;28;20055;-71
2022/04/24 01:58:34;;;;;;;15.45;6.97;;;;;;;12.26;57.72;99828.31;5074730;28;20131;-72
2022/04/24 02:01:02;;;;;;;16.67;7.72;;;;;;;12.22;58.17;99822.09;5061601;28;20512;-71
2022/04/24 02:03:30;;;;;;;14.75;8.10;;;;;;;12.20;58.01;99827.25;5064189;28;20044;-73
2022/04/24 02:05:57;;;;;;;14.98;6.82;;;;;;;12.15;58.70;99816.69;5067638;28;20051;-70
2022/04/24 02:08:24;;;;;;;16.42;7.70;;;;;;;12.10;58.65;99826.28;5067647;28;20421;-72
2022/04/24 02:10:51;;;;;;;15.50;7.30;;;;;;;12.09;59.27;99829.50;5086720;28;20069;-71
2022/04/24 02:13:18;;;;;;;17.35;7.28;;;;;;;12.03;59.76;99826.44;5071101;28;20071;-71
2022/04/24 02:15:46;;;;;;;17.52;8.65;;;;;;;12.02;59.71;99827.63;5068347;28;20078;-71
2022/04/24 02:18:12;;;;;;;18.90;8.23;;;;;;;11.96;60.06;99829.38;5066208;28;20063;-71
2022/04/24 02:20:39;;;;;;;16.27;7.65;;;;;;;11.97;60.28;99830.13;5064593;28;20065;-71
2022/04/24 02:23:05;;;;;;;15.10;7.93;;;;;;;11.97;60.08;99838.44;5060989;28;20473;-72
2022/04/24 02:25:32;;;;;;;16.77;8.13;;;;;;;11.89;59.89;99823.97;5068488;28;20094;-70
2022/04/24 02:27:59;;;;;;;15.30;8.00;;;;;;;11.93;60.38;99837.75;5063875;28;20123;-71
2022/04/24 02:30:28;;;;;;;16.95;8.70;;;;;;;11.87;60.68;99833.91;5065559;28;20136;-71
2022/04/24 02:32:59;;;;;;;17.45;8.65;;;;;;;11.85;60.71;99831.56;5071083;28;20131;-72
2022/04/24 02:35:27;;;;;;;14.38;7.30;;;;;;;11.79;62.04;99826.94;5072478;28;20596;-72
2022/04/24 02:37:54;;;;;;;17.27;9.35;;;;;;;11.78;61.16;99837.25;5066735;28;20167;-71
2022/04/24 02:40:21;;;;;;;18.65;9.18;;;;;;;11.79;61.62;99841.59;5063525;28;20045;-71
2022/04/24 02:42:50;;;;;;;17.25;9.70;;;;;;;11.75;61.95;99837.31;5072223;28;20050;-72
2022/04/24 02:45:17;;;;;;;16.65;8.98;;;;;;;11.70;62.49;99830.28;5066406;28;20059;-72
2022/04/24 02:47:44;;;;;;;17.08;9.15;;;;;;;11.71;61.97;99837.38;5067912;28;20140;-72
2022/04/24 02:50:10;;;;;;;15.98;8.57;;;;;;;11.69;62.72;99837.03;5067148;28;20415;-72
2022/04/24 02:52:50;;;;;;;17.80;9.02;;;;;;;11.64;63.33;99825.69;5064105;28;20176;-72
2022/04/24 02:55:17;;;;;;;18.88;9.43;;;;;;;11.62;62.42;99828.09;5061159;28;20064;-71
2022/04/24 02:57:44;;;;;;;11.68;5.95;;;;;;;11.53;64.58;99825.03;5059502;28;20789;-70
2022/04/24 03:00:13;;;;;;;17.27;7.70;;;;;;;11.54;63.59;99830.16;5071581;28;20045;-74
2022/04/24 03:02:41;;;;;;;17.45;9.82;;;;;;;11.49;64.75;99832.66;5061994;28;20148;-72
2022/04/24 03:05:09;;;;;;;18.05;9.18;;;;;;;11.52;65.07;99823.50;5067945;28;20079;-70
2022/04/24 03:07:36;;;;;;;18.17;9.52;;;;;;;11.37;65.56;99811.88;5065670;28;20098;-70
2022/04/24 03:10:03;;;;;;;15.15;7.97;;;;;;;11.39;66.32;99834.41;5068973;28;20056;-72
2022/04/24 03:12:29;;;;;;;19.75;9.68;;;;;;;11.40;65.87;99829.63;5068204;28;20659;-70
2022/04/24 03:14:56;;;;;;;19.38;9.93;;;;;;;11.38;65.95;99826.53;5069775;28;20083;-73
2022/04/24 03:17:23;;;;;;;18.95;8.65;;;;;;;11.34;66.19;99820.28;5070659;28;20052;-70
2022/04/24 03:19:49;;;;;;;18.55;8.75;;;;;;;11.28;67.19;99822.75;5071321;28;20123;-70
2022/04/24 03:22:16;;;;;;;16.70;9.70;;;;;;;11.29;67.37;99826.28;5067332;28;20131;-73
2022/04/24 03:24:42;;;;;;;18.15;9.80;;;;;;;11.20;68.79;99817.78;5073024;28;20143;-71
2022/04/24 03:27:09;;;;;;;18.50;8.73;;;;;;;11.20;68.73;99828.84;5069946;28;20131;-70
2022/04/24 03:29:35;;;;;;;16.05;8.32;;;;;;;11.14;68.19;99819.47;5059485;28;20130;-72
2022/04/24 03:32:02;;;;;;;14.60;7.45;;;;;;;11.14;69.80;99825.75;5054479;28;20040;-70
2022/04/24 03:34:28;;;;;;;18.88;9.45;;;;;;;11.14;69.31;99811.16;5058349;28;20052;-74
2022/04/24 03:36:55;;;;;;;16.15;8.70;;;;;;;11.09;69.40;99814.38;5068936;28;20496;-70
2022/04/24 03:39:21;;;;;;;17.50;8.80;;;;;;;11.13;69.48;99826.97;5071093;28;20044;-70
2022/04/24 03:41:48;;;;;;;14.82;7.10;;;;;;;11.08;70.59;99824.69;5069969;28;20156;-70
2022/04/24 03:44:14;;;;;;;17.48;8.95;;;;;;;11.06;70.50;99823.53;5069814;28;20106;-71
2022/04/24 03:46:41;;;;;;;19.77;8.85;;;;;;;11.04;70.50;99823.97;5069615;28;20048;-71
2022/04/24 03:49:07;;;;;;;15.90;7.93;;;;;;;10.95;70.74;99809.88;5064652;28;20214;-72
2022/04/24 03:51:34;;;;;;;14.45;6.80;;;;;;;10.96;71.58;99822.50;5070960;28;20139;-70
2022/04/24 03:54:00;;;;;;;16.73;7.57;;;;;;;10.98;71.72;99822.09;5057609;28;20066;-70
2022/04/24 03:56:31;;;;;;;17.40;7.60;;;;;;;10.96;71.55;99824.50;5069709;28;20084;-70
2022/04/24 03:58:58;;;;;;;18.15;9.68;;;;;;;10.91;71.92;99825.78;5070101;28;20059;-70
2022/04/24 04:01:25;;;;;;;21.10;8.13;;;;;;;10.91;72.47;99831.31;5069891;28;20051;-71
2022/04/24 04:03:51;;;;;;;14.82;7.72;;;;;;;10.91;72.53;99827.75;5068503;28;20048;-72
2022/04/24 04:06:19;;;;;;;17.20;9.13;;;;;;;10.89;71.72;99825.41;5068464;28;20054;-71
2022/04/24 04:08:45;;;;;;;13.50;6.90;;;;;;;10.83;72.38;99820.78;5061070;28;20048;-73
2022/04/24 04:11:12;;;;;;;17.88;8.88;;;;;;;10.84;72.46;99827.88;5069207;28;20048;-70
2022/04/24 04:13:39;;;;;;;14.80;8.02;;;;;;;10.79;73.10;99825.56;5067814;28;20068;-71
2022/04/24 04:16:06;;;;;;;15.00;7.05;;;;;;;10.78;72.85;99824.81;5069866;28;20080;-70
2022/04/24 04:18:33;;;;;;;17.10;7.57;;;;;;;10.77;73.46;99826.00;5059893;28;20553;-70
2022/04/24 04:20:59;;;;;;;15.27;7.65;;;;;;;10.72;73.50;99823.72;5066136;28;21678;-71
2022/04/24 04:23:26;;;;;;;15.95;8.73;;;;;;;10.68;74.31;99825.75;5064827;28;20424;-71
2022/04/24 04:25:53;;;;;;;15.93;8.15;;;;;;;10.67;73.90;99835.25;5070962;28;20057;-70
2022/04/24 04:28:19;;;;;;;12.15;5.45;;;;;;;10.70;74.46;99833.63;5065465;28;20044;-71
2022/04/24 04:30:46;;;;;;;16.55;7.93;;;;;;;10.67;74.36;99829.72;5069865;28;20129;-73
2022/04/24 04:33:12;;;;;;;11.48;5.78;;;;;;;10.70;74.40;99833.63;5067484;28;20560;-71
2022/04/24 04:35:38;;;;;;;11.30;3.97;;;;;;;10.69;74.64;99838.38;5070835;28;20700;-71
2022/04/24 04:38:05;;;;;;;17.35;7.78;;;;;;;10.65;74.69;99834.09;5070160;28;20048;-71
2022/04/24 04:40:32;;;;;;;13.35;6.05;;;;;;;10.65;74.75;99845.16;5070242;28;20052;-71
2022/04/24 04:42:58;;;;;;;17.40;7.93;;;;;;;10.65;74.08;99850.69;5068521;28;20859;-71
2022/04/24 04:45:25;;;;;;;14.95;7.13;;;;;;;10.64;74.50;99849.13;5102374;28;20140;-71
2022/04/24 04:47:52;;;;;;;18.25;7.93;;;;;;;10.62;74.90;99849.56;5064917;28;20048;-72
2022/04/24 04:50:18;;;;;;;16.42;6.60;;;;;;;10.59;74.54;99844.84;5069408;28;20067;-71
2022/04/24 04:52:45;;;;;;;14.57;6.50;;;;;;;10.64;74.38;99857.44;5074666;28;20045;-70
2022/04/24 04:55:11;;;;;;;15.63;7.05;;;;;;;10.65;74.59;99847.91;5069950;28;20404;-71
2022/04/24 04:57:38;;;;;;;14.90;6.85;;;;;;;10.66;74.50;99866.09;5076206;28;20155;-70
2022/04/24 05:00:07;;;;;;;13.18;5.78;;;;;;;10.63;74.52;99851.09;5066205;28;20131;-72
2022/04/24 05:02:41;;;;;;;15.70;7.30;;;;;;;10.61;73.61;99847.19;5067775;28;20076;-71
2022/04/24 05:05:08;;;;;;;13.73;6.47;;;;;;;10.67;74.33;99862.94;5074634;28;20056;-70
2022/04/24 05:07:36;;;;;;;16.67;6.97;;;;;;;10.68;73.93;99864.47;5067810;28;20513;-72
2022/04/24 05:10:04;;;;;;;13.70;6.47;;;;;;;10.68;74.25;99872.00;5067221;28;20141;-71
2022/04/24 05:12:31;;;;;;;14.63;7.10;;;;;;;10.72;74.35;99867.19;5069172;28;20055;-71
2022/04/24 05:15:08;;;;;;;18.63;7.65;;;;;;;10.75;74.79;99880.19;5057376;28;20048;-70
2022/04/24 05:17:36;;;;;;;18.00;7.00;;;;;;;10.77;74.00;99875.03;5065112;28;20070;-70
2022/04/24 05:20:04;;;;;;;8.35;4.03;;;;;;;10.79;74.36;99881.69;5067859;28;20139;-71
2022/04/24 05:22:31;;;;;;;13.73;6.35;;;;;;;10.82;74.11;99877.31;5065012;28;20136;-70
2022/04/24 05:24:57;;;;;;;16.55;7.35;;;;;;;10.79;73.79;99880.91;5073034;28;20063;-70
2022/04/24 05:27:24;;;;;;;18.88;7.53;;;;;;;10.83;73.73;99882.41;5063236;28;20152;-70
2022/04/24 05:29:50;;;;;;;15.93;6.38;;;;;;;10.85;73.62;99887.53;5054634;28;20055;-70
2022/04/24 05:32:17;;;;;;;13.65;5.47;;;;;;;10.92;73.58;99885.47;5077087;28;20058;-71
2022/04/24 05:34:44;;;;;;;15.80;7.57;;;;;;;10.93;73.65;99886.25;5100811;28;20442;-72
2022/04/24 05:37:11;;;;;;;13.27;5.97;;;;;;;10.97;73.50;99895.28;5067628;28;20047;-70
2022/04/24 05:39:38;;;;;;;14.85;6.72;;;;;;;10.98;73.17;99894.06;5069664;28;20071;-71
2022/04/24 05:42:05;;;;;;;9.63;4.95;;;;;;;10.96;73.57;99890.91;5068319;28;20159;-70
2022/04/24 05:44:31;;;;;;;21.88;6.93;;;;;;;11.01;73.12;99882.16;5100545;28;20044;-70
2022/04/24 05:46:59;;;;;;;8.13;3.63;;;;;;;11.01;73.39;99893.22;5062421;28;20086;-72
2022/04/24 05:49:26;;;;;;;14.77;7.25;;;;;;;11.07;72.86;99886.78;5062903;28;20055;-72
2022/04/24 05:51:52;;;;;;;15.55;7.50;;;;;;;11.13;72.22;99887.13;5056191;28;20056;-75
2022/04/24 05:54:19;;;;;;;16.73;7.63;;;;;;;11.14;72.27;99892.19;5068910;28;20155;-71
2022/04/24 05:56:45;;;;;;;15.55;7.05;;;;;;;11.19;71.72;99890.94;5076807;28;20471;-72
2022/04/24 05:59:12;;;;;;;17.30;7.05;;;;;;;11.23;71.78;99886.13;5066428;28;20040;-72
2022/04/24 06:01:38;;;;;;;13.77;5.75;;;;;;;11.23;71.74;99892.44;5071825;28;20127;-72
2022/04/24 06:04:05;;;;;;;17.08;6.80;;;;;;;11.22;71.90;99888.13;5069481;28;20045;-72
2022/04/24 06:06:32;;;;;;;14.73;7.00;;;;;;;11.32;70.78;99897.44;5068491;28;20051;-75
2022/04/24 06:08:58;;;;;;;18.08;7.50;;;;;;;11.33;70.88;99891.50;5069221;28;20040;-75
2022/04/24 06:11:25;;;;;;;13.48;6.20;;;;;;;11.36;70.93;99889.84;5063621;28;20053;-72
2022/04/24 06:13:52;;;;;;;14.93;7.53;;;;;;;11.43;70.66;99892.50;5064912;28;20075;-73
2022/04/24 06:16:19;;;;;;;10.93;5.28;;;;;;;11.44;70.64;99897.63;5065538;28;20059;-73
2022/04/24 06:18:46;;;;;;;16.83;6.60;;;;;;;11.46;70.11;99886.91;5066638;28;20051;-75
2022/04/24 06:21:12;;;;;;;16.13;6.70;;;;;;;11.54;69.66;99884.81;5061260;28;20154;-73
2022/04/24 06:23:39;;;;;;;15.27;5.80;;;;;;;11.62;70.13;99897.34;5063005;28;20050;-74
2022/04/24 06:26:05;;;;;;;14.80;7.70;;;;;;;11.68;69.47;99898.44;5074205;28;20058;-72
2022/04/24 06:28:32;;;;;;;14.63;7.28;;;;;;;11.69;69.29;99898.00;5064089;28;20140;-73
2022/04/24 06:30:58;;;;;;;16.67;7.05;;;;;;;11.76;68.75;99903.41;5066286;28;20048;-73
2022/04/24 06:33:25;;;;;;;14.60;6.63;;;;;;;11.84;68.45;99904.03;5063200;28;20555;-75
2022/04/24 06:35:51;;;;;;;14.35;6.30;;;;;;;11.84;68.60;99896.53;5071588;28;20131;-73
2022/04/24 06:38:22;;;;;;;11.88;5.30;;;;;;;11.89;67.98;99892.47;5069086;28;21783;-73
2022/04/24 06:40:48;;;;;;;12.13;5.53;;;;;;;11.93;67.67;99907.84;5065129;28;20084;-74
2022/04/24 06:43:15;;;;;;;16.25;7.18;;;;;;;11.97;67.51;99893.88;5066008;28;20485;-73
2022/04/24 06:45:43;;;;;;;14.05;6.57;;;;;;;12.06;67.35;99894.91;5070767;28;20090;-72
2022/04/24 06:48:15;;;;;;;13.95;6.88;;;;;;;12.18;67.07;99901.78;5072470;28;20143;-72
2022/04/24 06:50:43;;;;;;;15.88;7.15;;;;;;;12.22;66.73;99902.50;5068384;28;20057;-72
2022/04/24 06:53:11;;;;;;;16.33;6.75;;;;;;;12.35;66.46;99903.41;5075066;28;20128;-74
2022/04/24 06:55:39;;;;;;;16.10;6.90;;;;;;;12.46;66.07;99903.97;5069794;28;20044;-74
2022/04/24 06:58:08;;;;;;;13.95;6.47;;;;;;;12.48;65.86;99915.41;5070472;28;20041;-73
2022/04/24 07:00:36;;;;;;;18.70;7.93;;;;;;;12.48;64.88;99910.66;5069509;28;20057;-70
2022/04/24 07:03:24;;;;;;;18.17;7.97;;;;;;;12.52;64.40;99905.03;5072194;28;20041;-71
2022/04/24 07:05:54;;;;;;;14.02;6.32;;;;;;;12.54;63.98;99910.91;5063950;28;20048;-71
2022/04/24 07:08:22;;;;;;;12.45;6.32;;;;;;;12.57;64.68;99896.97;5068973;28;20044;-73
2022/04/24 07:10:49;;;;;;;11.55;4.90;;;;;;;12.72;64.56;99902.97;5070216;28;20075;-72
2022/04/24 07:13:15;;;;;;;16.92;7.15;;;;;;;12.83;63.63;99901.53;5072935;28;20044;-71
2022/04/24 07:15:42;;;;;;;12.43;6.25;;;;;;;12.89;63.42;99905.34;5064389;28;20055;-71
2022/04/24 07:18:10;;;;;;;14.35;6.90;;;;;;;13.00;62.56;99905.16;5066087;28;20128;-71
2022/04/24 07:20:37;;;;;;;16.58;7.80;;;;;;;13.06;62.03;99902.63;5075893;28;20048;-73
2022/04/24 07:23:05;;;;;;;16.40;7.70;;;;;;;13.18;61.80;99910.25;5073879;28;20388;-74
2022/04/24 07:25:40;;;;;;;19.85;8.05;;;;;;;13.29;61.49;99914.34;5070271;28;20159;-72
2022/04/24 07:28:08;;;;;;;16.83;6.93;;;;;;;13.35;61.27;99907.03;5064449;28;20065;-72
2022/04/24 07:30:34;;;;;;;16.27;7.30;;;;;;;13.43;60.61;99913.97;5065315;28;20086;-75
2022/04/24 07:33:02;;;;;;;15.55;7.53;;;;;;;13.51;60.21;99907.03;5071101;28;20098;-73
2022/04/24 07:35:31;;;;;;;17.20;7.45;;;;;;;13.56;59.59;99909.28;5071238;28;20056;-74
2022/04/24 07:37:59;;;;;;;16.02;7.97;;;;;;;13.69;59.66;99909.34;5070982;28;20040;-73
2022/04/24 07:40:28;;;;;;;17.25;8.30;;;;;;;13.79;59.72;99905.50;5067580;28;20109;-75
2022/04/24 07:42:57;;;;;;;17.48;8.32;;;;;;;13.87;60.46;99910.44;5070241;28;20060;-72
2022/04/24 07:45:30;;;;;;;22.40;8.05;;;;;;;13.96;60.31;99907.81;5071626;28;20104;-72
2022/04/24 07:47:58;;;;;;;15.75;7.50;;;;;;;14.09;61.57;99914.19;5065359;28;20051;-72
2022/04/24 07:50:28;;;;;;;15.00;7.05;;;;;;;14.13;57.82;99920.44;5071860;28;20177;-73
2022/04/24 07:52:55;;;;;;;15.82;8.02;;;;;;;14.11;57.33;99922.88;5066563;28;20094;-73
2022/04/24 07:55:24;;;;;;;18.48;8.75;;;;;;;14.17;57.59;99915.56;5073121;28;20076;-76
2022/04/24 07:57:56;;;;;;;18.25;8.38;;;;;;;14.23;57.24;99919.38;5075194;28;20048;-74
2022/04/24 08:00:24;;;;;;;17.15;8.48;;;;;;;14.29;56.95;99917.63;5072274;28;20135;-74
2022/04/24 08:02:54;;;;;;;21.58;9.13;;;;;;;14.40;56.69;99918.09;5073069;28;20056;-73
2022/04/24 08:05:25;;;;;;;18.70;7.72;;;;;;;14.46;55.97;99909.97;5052487;28;20048;-74
2022/04/24 08:07:53;;;;;;;18.25;9.35;;;;;;;14.50;56.04;99921.78;5069728;28;20141;-76
2022/04/24 08:10:22;;;;;;;18.08;9.07;;;;;;;14.59;55.61;99919.94;5065163;28;20136;-75
2022/04/24 08:12:49;;;;;;;17.88;9.48;;;;;;;14.65;55.48;99914.59;5064473;28;20040;-76
2022/04/24 08:15:16;;;;;;;17.60;9.00;;;;;;;14.74;55.29;99920.25;5072463;28;20052;-73
2022/04/24 08:17:43;;;;;;;13.23;5.93;;;;;;;14.79;55.06;99931.63;5068991;28;20139;-72
2022/04/24 08:20:13;;;;;;;16.40;6.78;;;;;;;14.83;54.38;99923.97;5060592;28;20226;-74
2022/04/24 08:22:48;;;;;;;17.83;8.93;;;;;;;14.87;54.02;99921.03;5070689;28;20556;-72
2022/04/24 08:25:17;;;;;;;;;;;;;;;14.99;53.77;99917.50;5069840;28;20051;-73
2022/04/24 08:27:44;;;;;;;18.05;8.82;;;;;;;15.06;53.76;99915.25;5067698;28;20014;-74
2022/04/24 08:30:12;;;;;;;12.00;5.35;;;;;;;15.13;53.31;99925.41;5070474;28;20124;-76
2022/04/24 08:32:40;;;;;;;15.90;7.88;;;;;;;15.18;53.36;99922.81;5067125;28;20048;-73
2022/04/24 08:35:09;;;;;;;22.48;10.82;;;;;;;15.24;52.97;99920.25;5076598;28;20046;-76
2022/04/24 08:37:36;;;;;;;20.52;9.50;;;;;;;15.33;52.94;99934.31;5068742;28;20053;-73
2022/04/24 08:40:08;;;;;;;16.25;6.20;;;;;;;15.40;52.36;99931.31;5070102;28;20048;-75
2022/04/24 08:42:35;;;;;;;19.73;8.25;;;;;;;15.49;51.97;99934.16;5084079;28;20485;-72
2022/04/24 08:45:04;;;;;;;21.10;10.13;;;;;;;15.55;51.56;99923.25;5067343;28;20044;-71
2022/04/24 08:47:31;;;;;;;18.73;9.32;;;;;;;15.68;51.59;99930.34;5067475;28;20528;-72
2022/04/24 08:49:59;;;;;;;24.13;11.68;;;;;;;15.75;51.62;99918.16;5076114;28;20052;-73
2022/04/24 08:52:28;;;;;;;20.67;9.90;;;;;;;15.93;51.72;99921.13;5081867;28;20051;-74
2022/04/24 08:54:56;;;;;;;20.10;9.30;;;;;;;15.99;51.08;99910.94;5078271;28;20043;-74
2022/04/24 08:57:27;;;;;;;19.80;9.57;;;;;;;16.19;50.77;99919.75;5075971;28;20071;-73
2022/04/24 08:59:54;;;;;;;17.05;9.05;;;;;;;16.24;49.84;99919.97;5066245;28;20053;-75
2022/04/24 09:02:41;;;;;;;20.85;11.27;;;;;;;16.34;50.16;99923.59;5082070;28;20052;-73
2022/04/24 09:05:08;;;;;;;17.73;9.32;;;;;;;16.37;49.62;99922.69;5069254;28;20511;-72
2022/04/24 09:07:35;;;;;;;16.00;6.60;;;;;;;16.46;49.60;99929.13;5074691;28;20067;-71
2022/04/24 09:10:11;;;;;;;21.23;10.18;;;;;;;16.53;48.81;99926.09;5064552;28;20076;-72
2022/04/24 09:12:39;;;;;;;20.83;11.02;;;;;;;16.62;49.40;99916.97;5084297;28;20048;-76
2022/04/24 09:15:07;;;;;;;16.23;7.90;;;;;;;16.64;48.25;99918.06;5065456;28;20127;-73
2022/04/24 09:17:35;;;;;;;20.33;9.55;;;;;;;16.80;48.64;99919.84;5055256;28;20060;-74
2022/04/24 09:20:16;;;;;;;21.17;11.07;;;;;;;16.93;48.48;99909.38;5055897;28;20068;-74
2022/04/24 09:22:43;;;;;;;10.45;4.70;;;;;;;17.04;48.09;99918.88;5059987;28;20052;-73
2022/04/24 09:25:12;;;;;;;20.08;10.20;;;;;;;17.18;48.56;99914.75;5077991;28;20521;-74
2022/04/24 09:27:39;;;;;;;19.08;10.73;;;;;;;17.32;48.00;99909.34;5065979;28;20163;-74
2022/04/24 09:30:13;;;;;;;19.75;11.02;;;;;;;17.47;47.67;99923.56;5061039;28;20131;-75
2022/04/24 09:32:47;;;;;;;15.70;9.00;;;;;;;17.48;46.48;99902.72;5064167;28;20139;-72
2022/04/24 09:35:32;;;;;;;20.02;10.15;;;;;;;17.63;46.78;99906.50;5086236;28;20044;-75
2022/04/24 09:38:07;;;;;;;19.30;9.63;;;;;;;17.76;46.43;99895.94;5070126;28;20048;-75
2022/04/24 09:40:50;;;;;;;18.05;9.93;;;;;;;17.86;45.51;99905.91;5067947;28;20076;-75
2022/04/24 09:43:19;;;;;;;20.02;10.88;;;;;;;17.96;45.76;99902.63;5064354;28;20076;-70
2022/04/24 09:45:48;;;;;;;16.02;8.00;;;;;;;17.98;45.10;99905.75;5063662;28;20063;-71
2022/04/24 09:48:19;;;;;;;17.60;8.35;;;;;;;18.10;45.00;99889.25;5066352;28;20049;-70
2022/04/24 09:50:50;;;;;;;13.98;6.40;;;;;;;18.21;44.69;99895.91;5068454;28;20563;-70
2022/04/24 09:53:21;;;;;;;18.98;10.75;;;;;;;18.23;44.40;99904.63;5068696;28;21816;-70
2022/04/24 09:55:49;;;;;;;13.98;7.72;;;;;;;18.14;43.35;99895.44;5061358;28;20111;-70
2022/04/24 09:58:17;;;;;;;19.92;10.07;;;;;;;18.24;44.42;99894.19;5066311;28;20059;-73
2022/04/24 10:00:44;;;;;;;20.08;11.15;;;;;;;18.33;44.18;99903.38;5066404;28;20159;-75
2022/04/24 10:03:18;;;;;;;18.48;10.77;;;;;;;18.48;43.72;99904.31;5069475;28;20131;-74
2022/04/24 10:05:47;;;;;;;20.35;10.82;;;;;;;18.59;43.78;99898.97;5070571;28;20055;-72
2022/04/24 10:08:15;;;;;;;18.52;9.30;;;;;;;18.73;43.64;99908.75;5065590;28;20049;-70
2022/04/24 10:10:48;;;;;;;12.97;5.77;;;;;;;18.80;42.52;99892.38;5067074;28;20398;-74
2022/04/24 10:13:18;;;;;;;16.50;8.80;;;;;;;18.91;42.67;99897.47;5073306;28;20051;-73
2022/04/24 10:15:59;;;;;;;15.57;8.27;;;;;;;19.03;42.64;99900.06;5068600;28;20072;-75
2022/04/24 10:18:56;;;;;;;18.08;10.05;;;;;;;19.16;41.67;99906.25;5057093;28;20572;-74
2022/04/24 10:21:53;;;;;;;18.08;8.05;;;;;;;19.15;40.54;99901.88;5050431;28;20055;-71
2022/04/24 10:24:20;;;;;;;17.75;9.75;;;;;;;19.20;41.06;99892.81;5065034;28;20155;-71
2022/04/24 10:26:55;;;;;;;12.27;6.18;;;;;;;19.15;40.37;99896.28;5066923;28;20055;-71
2022/04/24 10:29:22;;;;;;;22.27;9.23;;;;;;;19.34;40.62;99911.03;5055340;28;20545;-75
2022/04/24 10:31:49;;;;;;;20.42;9.90;;;;;;;19.49;41.08;99898.59;5069086;28;20087;-74
2022/04/24 10:34:17;;;;;;;13.15;7.03;;;;;;;19.65;40.66;99903.78;5067175;28;20044;-76
2022/04/24 10:37:01;;;;;;;17.48;10.50;;;;;;;19.78;40.43;99915.53;5059976;28;20076;-74
2022/04/24 10:39:33;;;;;;;18.48;9.10;;;;;;;20.05;39.78;99906.91;5069404;28;20139;-73
2022/04/24 10:42:07;;;;;;;16.80;8.85;;;;;;;20.21;39.33;99909.28;5072700;28;20091;-71
2022/04/24 10:44:34;;;;;;;16.08;8.95;;;;;;;20.28;38.70;99914.53;5073955;28;20049;-72
2022/04/24 10:47:11;;;;;;;15.80;8.75;;;;;;;20.33;38.62;99908.25;5064419;28;20052;-74
2022/04/24 10:49:37;;;;;;;13.85;5.88;;;;;;;20.40;38.35;99904.28;5097200;28;20071;-74
2022/04/24 10:52:05;;;;;;;18.48;7.18;;;;;;;20.56;38.49;99926.28;5065775;28;20149;-76
2022/04/24 10:54:39;;;;;;;17.52;9.27;;;;;;;20.56;37.73;99906.63;5065499;28;20669;-75
2022/04/24 10:57:16;;;;;;;;;;;;;;;20.57;37.12;99907.38;5067560;28;20118;-75
2022/04/24 10:59:52;;;;;;;12.48;5.88;;;;;;;20.52;37.02;99903.22;5049491;28;20024;-76
2022/04/24 11:02:30;;;;;;;15.27;7.25;;;;;;;20.79;36.36;99904.97;5055774;28;20075;-74
2022/04/24 11:05:02;;;;;;;15.27;9.20;;;;;;;20.92;36.43;99908.25;5061983;28;20118;-72
2022/04/24 11:07:31;;;;;;;15.55;8.75;;;;;;;20.95;36.76;99898.88;5070797;28;20084;-73
2022/04/24 11:10:09;;;;;;;16.13;8.00;;;;;;;21.15;36.67;99901.72;5067851;28;20060;-72
2022/04/24 11:12:38;;;;;;;8.73;4.07;;;;;;;21.23;35.90;99895.19;5068499;28;20496;-74
2022/04/24 11:15:10;;;;;;;16.83;9.63;;;;;;;21.39;35.96;99903.09;5067576;28;20179;-73
2022/04/24 11:17:37;;;;;;;18.40;9.07;;;;;;;21.54;36.23;99889.78;5057292;28;20080;-77
2022/04/24 11:20:09;;;;;;;17.17;8.40;;;;;;;21.69;36.11;99900.94;5068428;28;20222;-72
2022/04/24 11:22:55;;;;;;;15.30;7.97;;;;;;;21.91;35.06;99892.81;5053583;28;20055;-73
2022/04/24 11:25:22;;;;;;;;;;;;;;;21.73;34.33;99893.13;5061243;28;20582;-72
2022/04/24 11:27:51;;;;;;;15.77;7.60;;;;;;;21.75;33.85;99890.56;5063979;28;22937;-74
2022/04/24 11:30:20;;;;;;;15.63;8.50;;;;;;;21.46;34.39;99899.88;5064358;28;20052;-74
2022/04/24 11:32:57;;;;;;;15.77;9.18;;;;;;;21.46;34.49;99904.75;5071728;28;20068;-73